Time;durP1;ratioP1;P1;durP2;ratioP2;P2;SDS_P1;SDS_P2;PMS_P1;PMS_P2;Temp;Humidity;BMP_temperature;BMP_pressure;BME280_temperature;BME280_humidity;BME280_pressure;Samples;Min_cycle;Max_cycle;Signal;HPM_P1;HPM_P2
2022/05/09 00:01:31;;;;;;;0.90;0.80;;;;;;;22.21;48.58;99653.44;5131755;28;20078;-63
2022/05/09 00:03:57;;;;;;;0.90;0.70;;;;;;;22.21;48.54;99653.44;5131860;28;20051;-63
2022/05/09 00:06:24;;;;;;;1.10;0.80;;;;;;;22.15;48.55;99644.66;5131884;28;20142;-63
2022/05/09 00:08:50;;;;;;;1.08;0.70;;;;;;;22.17;48.47;99649.84;5131883;28;20039;-63
2022/05/09 00:11:15;;;;;;;1.27;0.80;;;;;;;22.17;48.59;99652.63;5131713;28;20043;-63
2022/05/09 00:13:42;;;;;;;1.30;0.88;;;;;;;22.13;48.83;99648.97;5131891;28;20050;-63
2022/05/09 00:16:07;;;;;;;1.05;0.80;;;;;;;22.11;48.71;99649.34;5131722;28;20043;-63
2022/05/09 00:18:33;;;;;;;1.05;0.80;;;;;;;22.09;48.85;99651.72;5131516;28;20232;-63
2022/05/09 00:20:58;;;;;;;1.00;0.75;;;;;;;22.08;48.87;99649.28;5131816;28;20567;-63
2022/05/09 00:23:24;;;;;;;2.30;0.90;;;;;;;22.09;48.69;99648.13;5131663;28;20134;-63
2022/05/09 00:25:50;;;;;;;3.13;0.90;;;;;;;22.09;48.93;99650.91;5131725;28;20047;-63
2022/05/09 00:28:15;;;;;;;1.20;0.85;;;;;;;22.08;48.78;99643.72;5131630;28;20171;-63
2022/05/09 00:30:41;;;;;;;1.05;0.90;;;;;;;22.08;48.63;99643.72;5131441;28;20043;-63
2022/05/09 00:33:06;;;;;;;1.30;0.80;;;;;;;22.06;48.85;99643.28;5131385;28;20039;-63
2022/05/09 00:35:32;;;;;;;1.42;0.88;;;;;;;22.06;48.82;99640.50;5131417;28;20096;-63
2022/05/09 00:37:58;;;;;;;1.05;0.80;;;;;;;22.06;48.67;99635.72;5131342;28;20039;-63
2022/05/09 00:40:23;;;;;;;1.40;0.75;;;;;;;22.06;48.75;99646.06;5131337;28;20430;-63
2022/05/09 00:42:52;;;;;;;1.25;0.80;;;;;;;22.03;48.73;99644.03;5131202;28;20074;-63
2022/05/09 00:45:21;;;;;;;0.90;0.77;;;;;;;22.02;48.77;99646.03;5131309;28;20054;-63
2022/05/09 00:47:47;;;;;;;1.45;1.10;;;;;;;22.04;48.65;99640.06;5131387;28;20041;-63
2022/05/09 00:50:17;;;;;;;1.08;0.70;;;;;;;22.04;48.71;99640.06;5131399;28;20055;-63
2022/05/09 00:52:44;;;;;;;1.10;0.80;;;;;;;22.03;48.47;99649.63;5131260;28;20060;-62
2022/05/09 00:55:26;;;;;;;1.33;0.80;;;;;;;22.00;48.85;99651.16;5131083;28;20051;-62
2022/05/09 00:58:02;;;;;;;1.08;0.80;;;;;;;21.96;48.79;99648.34;5131173;28;20054;-63
2022/05/09 01:00:28;;;;;;;1.38;0.80;;;;;;;21.95;48.79;99654.28;5090221;28;20557;-63
2022/05/09 01:02:59;;;;;;;0.80;0.77;;;;;;;21.92;48.81;99646.66;5127472;28;20043;-62
2022/05/09 01:05:27;;;;;;;1.40;1.00;;;;;;;21.91;48.93;99645.88;5130824;28;20407;-63
2022/05/09 01:07:54;;;;;;;1.13;0.90;;;;;;;21.89;49.19;99645.44;5128101;28;20065;-63
2022/05/09 01:10:25;;;;;;;1.45;0.95;;;;;;;21.89;49.27;99648.22;5112510;28;20031;-63
2022/05/09 01:12:51;;;;;;;1.15;0.90;;;;;;;21.92;49.07;99653.03;5131000;28;20047;-63
2022/05/09 01:15:17;;;;;;;1.65;1.10;;;;;;;21.94;49.14;99649.91;5130893;28;20043;-63
2022/05/09 01:17:47;;;;;;;1.08;0.80;;;;;;;21.91;49.10;99651.44;5130597;28;20125;-63
2022/05/09 01:20:13;;;;;;;1.35;1.00;;;;;;;21.91;49.20;99656.19;5129669;28;20067;-63
2022/05/09 01:22:40;;;;;;;1.30;0.90;;;;;;;21.89;48.99;99662.16;5130916;28;20078;-63
2022/05/09 01:25:10;;;;;;;1.10;0.82;;;;;;;21.88;49.05;99662.53;5128994;28;20054;-63
2022/05/09 01:27:38;;;;;;;1.35;1.00;;;;;;;21.90;48.95;99660.97;5130290;28;20054;-63
2022/05/09 01:30:26;;;;;;;1.40;0.90;;;;;;;21.90;48.83;99666.53;5128090;28;20035;-63
2022/05/09 01:33:03;;;;;;;1.15;0.80;;;;;;;21.88;49.28;99659.75;5109612;28;20052;-63
2022/05/09 01:35:41;;;;;;;1.40;0.90;;;;;;;21.87;49.07;99660.94;5110129;28;20499;-63
2022/05/09 01:38:27;;;;;;;1.40;0.90;;;;;;;21.89;49.04;99659.38;5109478;28;20502;-63
2022/05/09 01:40:52;;;;;;;1.30;0.95;;;;;;;21.88;48.91;99660.56;5106052;28;20044;-63
2022/05/09 01:43:38;;;;;;;1.67;1.00;;;;;;;21.86;48.86;99659.31;5109868;28;20048;-63
2022/05/09 01:46:07;;;;;;;0.82;0.70;;;;;;;21.88;49.15;99663.34;5110059;28;20042;-63
2022/05/09 01:51:18;;;;;;;1.35;1.00;;;;;;;21.87;49.02;99663.72;5108237;28;20131;-63
2022/05/09 01:53:52;;;;;;;1.33;0.70;;;;;;;21.85;49.03;99664.06;5109946;28;20445;-63
2022/05/09 01:56:19;;;;;;;1.25;0.80;;;;;;;21.88;48.70;99668.09;5109956;28;20048;-63
2022/05/09 01:58:44;;;;;;;0.93;0.80;;;;;;;21.86;49.10;99665.72;5109669;28;20083;-63
2022/05/09 02:01:10;;;;;;;0.93;0.70;;;;;;;21.90;49.10;99679.66;5107905;28;20102;-63
2022/05/09 02:03:36;;;;;;;1.35;1.00;;;;;;;21.91;48.71;99679.28;5109964;28;20053;-62
2022/05/09 02:06:02;;;;;;;0.85;0.70;;;;;;;21.89;48.78;99678.88;5108808;28;20046;-63
2022/05/09 02:08:28;;;;;;;1.27;0.80;;;;;;;21.89;48.85;99676.06;5109505;28;20039;-63
2022/05/09 02:10:53;;;;;;;1.02;0.80;;;;;;;21.86;48.98;99679.63;5110149;28;20134;-63
2022/05/09 02:13:20;;;;;;;1.15;0.73;;;;;;;21.87;48.71;99680.44;5112281;28;20040;-63
2022/05/09 02:15:45;;;;;;;0.98;0.73;;;;;;;21.87;49.10;99686.00;5113082;28;20043;-63
2022/05/09 02:18:10;;;;;;;1.00;0.73;;;;;;;21.86;48.73;99687.16;5111766;28;20044;-63
2022/05/09 02:20:36;;;;;;;0.90;0.73;;;;;;;21.86;49.00;99689.94;5113023;28;20129;-63
2022/05/09 02:23:02;;;;;;;1.40;0.98;;;;;;;21.84;48.88;99689.50;5111747;28;20043;-63
2022/05/09 02:25:29;;;;;;;1.20;0.80;;;;;;;21.84;48.73;99693.09;5111421;28;20039;-62
2022/05/09 02:27:59;;;;;;;1.48;0.85;;;;;;;21.84;49.04;99695.09;5113024;28;20131;-63
2022/05/09 02:30:25;;;;;;;1.02;0.77;;;;;;;21.86;48.61;99695.50;5113047;28;20043;-63
2022/05/09 02:32:52;;;;;;;1.42;0.90;;;;;;;21.86;48.62;99698.28;5112827;28;20571;-63
2022/05/09 02:35:19;;;;;;;1.13;0.80;;;;;;;21.83;48.70;99694.28;5112569;28;20048;-63
2022/05/09 02:37:44;;;;;;;1.00;0.80;;;;;;;21.87;48.85;99700.72;5112227;28;20051;-63
2022/05/09 02:40:10;;;;;;;1.20;0.80;;;;;;;21.87;48.62;99699.91;5111687;28;20123;-63
2022/05/09 02:42:36;;;;;;;1.00;0.80;;;;;;;21.85;48.67;99700.28;5111737;28;20122;-63
2022/05/09 02:45:03;;;;;;;1.13;0.82;;;;;;;21.84;48.88;99707.03;5094237;28;20048;-62
2022/05/09 02:47:29;;;;;;;1.10;0.70;;;;;;;21.84;48.54;99707.03;5111964;28;20419;-63
2022/05/09 02:49:54;;;;;;;0.90;0.80;;;;;;;21.85;48.59;99703.06;5111350;28;20503;-63
2022/05/09 02:52:19;;;;;;;1.13;0.88;;;;;;;21.84;48.38;99703.44;5112538;28;20047;-63
2022/05/09 02:54:45;;;;;;;1.17;0.85;;;;;;;21.84;48.61;99698.66;5111441;28;20039;-63
2022/05/09 02:57:11;;;;;;;1.15;0.77;;;;;;;21.86;48.45;99701.91;5111243;28;20044;-62
2022/05/09 02:59:37;;;;;;;1.30;0.85;;;;;;;21.86;48.50;99707.47;5111732;28;20087;-63
2022/05/09 03:02:03;;;;;;;1.35;0.90;;;;;;;21.87;48.41;99702.72;5112129;28;20078;-63
2022/05/09 03:04:41;;;;;;;0.80;0.60;;;;;;;21.85;48.36;99714.19;5111538;28;20100;-63
2022/05/09 03:07:18;;;;;;;1.00;0.70;;;;;;;21.84;48.45;99709.81;5110864;28;20050;-63
2022/05/09 03:09:45;;;;;;;1.60;0.90;;;;;;;21.84;48.56;99709.00;5112406;28;20050;-62
2022/05/09 03:12:11;;;;;;;0.95;0.77;;;;;;;21.82;48.14;99709.38;5111368;28;20047;-63
2022/05/09 03:14:37;;;;;;;1.08;0.70;;;;;;;21.79;48.47;99698.19;5110763;28;20035;-62
2022/05/09 03:17:05;;;;;;;1.35;0.90;;;;;;;21.83;48.28;99707.41;5112119;28;20043;-62
2022/05/09 03:19:30;;;;;;;1.00;0.80;;;;;;;21.82;48.29;99709.38;5111150;28;20040;-63
2022/05/09 03:21:56;;;;;;;1.00;0.80;;;;;;;21.82;48.28;99712.19;5111106;28;20395;-63
2022/05/09 03:24:21;;;;;;;1.00;0.80;;;;;;;21.79;48.11;99710.16;5111845;28;20044;-63
2022/05/09 03:26:47;;;;;;;0.75;0.60;;;;;;;21.81;48.15;99713.34;5112087;28;20422;-63
2022/05/09 03:29:15;;;;;;;1.45;1.00;;;;;;;21.80;48.32;99710.94;5112142;28;20063;-63
2022/05/09 03:31:40;;;;;;;1.25;0.80;;;;;;;21.81;48.32;99716.13;5110271;28;20678;-63
2022/05/09 03:34:06;;;;;;;1.73;0.80;;;;;;;21.81;48.11;99710.56;5111745;28;20097;-63
2022/05/09 03:36:33;;;;;;;1.25;0.88;;;;;;;21.79;48.28;99715.72;5111603;28;20044;-63
2022/05/09 03:38:58;;;;;;;1.10;0.80;;;;;;;21.79;48.35;99709.31;5110447;28;20047;-63
2022/05/09 03:41:24;;;;;;;1.00;0.70;;;;;;;21.77;48.10;99711.69;5111686;28;20097;-63
2022/05/09 03:43:49;;;;;;;1.27;0.80;;;;;;;21.79;48.35;99712.94;5111673;28;20043;-63
2022/05/09 03:46:15;;;;;;;1.50;0.90;;;;;;;21.78;48.04;99714.09;5111606;28;20074;-62
2022/05/09 03:48:41;;;;;;;0.63;0.60;;;;;;;21.79;48.30;99721.28;5109599;28;20431;-63
2022/05/09 03:51:06;;;;;;;1.23;0.70;;;;;;;21.79;47.97;99721.28;5110446;28;20036;-63
2022/05/09 03:53:32;;;;;;;1.13;0.80;;;;;;;21.80;48.02;99722.91;5110885;28;20396;-63
2022/05/09 03:55:57;;;;;;;1.00;0.80;;;;;;;21.80;47.92;99722.09;5111294;28;20048;-63
2022/05/09 03:58:23;;;;;;;1.63;0.90;;;;;;;21.80;47.93;99722.09;5111536;28;20040;-63
2022/05/09 04:00:49;;;;;;;1.13;0.80;;;;;;;21.80;48.02;99727.66;5111631;28;20054;-63
2022/05/09 04:03:14;;;;;;;1.00;0.77;;;;;;;21.79;47.81;99732.44;5111328;28;20462;-63
2022/05/09 04:05:40;;;;;;;1.13;0.82;;;;;;;21.79;47.85;99734.38;5111421;28;20043;-63
2022/05/09 04:08:10;;;;;;;1.60;1.00;;;;;;;21.79;48.05;99735.22;5109935;28;20047;-63
2022/05/09 04:10:37;;;;;;;0.95;0.77;;;;;;;21.77;47.68;99729.19;5111308;28;20040;-63
2022/05/09 04:13:03;;;;;;;1.48;1.00;;;;;;;21.78;47.81;99739.16;5110529;28;20389;-63
2022/05/09 04:18:18;;;;;;;1.25;0.82;;;;;;;21.79;47.83;99740.78;5110869;28;20093;-63
2022/05/09 04:20:46;;;;;;;1.20;0.82;;;;;;;21.78;47.89;99739.16;5111195;28;20070;-63
2022/05/09 04:23:12;;;;;;;1.30;0.80;;;;;;;21.75;47.61;99739.91;5111071;28;20071;-62
2022/05/09 04:25:37;;;;;;;0.90;0.77;;;;;;;21.77;47.52;99751.47;5109164;28;20474;-63
2022/05/09 04:28:05;;;;;;;1.35;0.90;;;;;;;21.78;47.51;99741.94;5111104;28;20460;-63
2022/05/09 04:30:32;;;;;;;1.00;0.80;;;;;;;21.79;47.75;99743.56;5110834;28;20487;-63
2022/05/09 04:32:58;;;;;;;0.80;0.75;;;;;;;21.78;47.80;99741.94;5111006;28;20039;-63
2022/05/09 04:35:24;;;;;;;1.13;0.70;;;;;;;21.78;47.68;99743.91;5107564;28;20089;-63
2022/05/09 04:37:53;;;;;;;1.10;0.80;;;;;;;21.79;47.56;99742.72;5110090;28;20138;-63
2022/05/09 04:40:23;;;;;;;1.33;0.95;;;;;;;21.84;47.69;99753.56;5109219;28;20051;-63
2022/05/09 04:42:49;;;;;;;1.17;0.85;;;;;;;21.86;47.64;99748.41;5108999;28;20119;-63
2022/05/09 04:45:15;;;;;;;1.48;0.80;;;;;;;21.87;47.70;99762.00;5110730;28;20134;-63
2022/05/09 04:47:42;;;;;;;1.17;0.88;;;;;;;21.90;47.25;99760.44;5110825;28;20036;-63
2022/05/09 04:50:10;;;;;;;1.15;0.88;;;;;;;21.90;47.61;99761.22;5109347;28;20044;-63
2022/05/09 04:52:35;;;;;;;0.75;0.70;;;;;;;21.90;47.47;99757.63;5109693;28;20067;-63
2022/05/09 04:55:01;;;;;;;1.23;0.85;;;;;;;21.93;47.21;99763.28;5108581;28;20043;-63
2022/05/09 04:57:26;;;;;;;1.42;0.95;;;;;;;21.94;47.24;99767.66;5110562;28;20040;-63
2022/05/09 04:59:52;;;;;;;0.98;0.82;;;;;;;21.95;47.41;99768.47;5110516;28;20040;-63
2022/05/09 05:02:18;;;;;;;1.30;0.95;;;;;;;21.96;47.24;99770.06;5108009;28;20044;-63
2022/05/09 05:04:43;;;;;;;1.30;0.88;;;;;;;21.97;47.52;99774.47;5107984;28;20054;-63
2022/05/09 05:07:09;;;;;;;1.50;0.90;;;;;;;21.99;47.30;99772.91;5108919;28;20080;-63
2022/05/09 05:09:35;;;;;;;1.38;0.90;;;;;;;22.00;47.44;99768.13;5109738;28;20514;-63
2022/05/09 05:12:01;;;;;;;1.35;0.85;;;;;;;21.98;47.57;99776.06;5110418;28;20504;-63
2022/05/09 05:14:27;;;;;;;1.40;0.90;;;;;;;22.01;47.37;99778.13;5110231;28;20044;-62
2022/05/09 05:17:01;;;;;;;1.20;0.82;;;;;;;22.07;47.21;99786.94;5109866;28;20464;-61
2022/05/09 05:19:28;;;;;;;1.58;0.98;;;;;;;22.09;47.42;99790.22;5109146;28;20032;-62
2022/05/09 05:21:56;;;;;;;2.28;1.00;;;;;;;22.07;47.37;99781.38;5110218;28;20047;-62
2022/05/09 05:24:21;;;;;;;1.50;0.90;;;;;;;22.08;47.63;99794.16;5108328;28;20423;-62
2022/05/09 05:26:46;;;;;;;1.55;1.00;;;;;;;22.09;47.34;99796.59;5109230;28;20064;-62
2022/05/09 05:29:13;;;;;;;1.48;0.98;;;;;;;22.10;47.61;99791.81;5110045;28;20036;-62
2022/05/09 05:31:38;;;;;;;4.63;0.95;;;;;;;22.09;47.36;99799.38;5110026;28;20415;-62
2022/05/09 05:34:04;;;;;;;1.80;1.00;;;;;;;22.09;47.50;99798.56;5110214;28;20074;-62
2022/05/09 05:36:29;;;;;;;1.63;1.08;;;;;;;22.09;47.46;99806.94;5109910;28;20062;-62
2022/05/09 05:38:55;;;;;;;1.88;1.05;;;;;;;22.10;47.37;99808.53;5109828;28;20126;-62
2022/05/09 05:41:21;;;;;;;1.30;0.90;;;;;;;22.09;47.35;99813.28;5109911;28;20039;-62
2022/05/09 05:43:47;;;;;;;1.35;0.90;;;;;;;22.07;47.70;99809.22;5106935;28;20127;-62
2022/05/09 05:46:13;;;;;;;2.72;1.00;;;;;;;22.08;47.70;99817.25;5109853;28;20048;-62
2022/05/09 05:48:40;;;;;;;1.50;0.80;;;;;;;22.11;47.52;99815.69;5112429;28;20040;-61
2022/05/09 05:51:05;;;;;;;1.50;0.90;;;;;;;22.11;47.67;99815.69;5112254;28;20043;-61
2022/05/09 05:53:31;;;;;;;1.42;0.93;;;;;;;22.11;47.50;99818.50;5112014;28;20044;-61
2022/05/09 05:55:56;;;;;;;1.67;1.00;;;;;;;22.11;47.45;99819.28;5111407;28;20039;-61
2022/05/09 05:58:26;;;;;;;1.30;0.90;;;;;;;22.11;47.47;99832.41;5111580;28;20123;-62
2022/05/09 06:00:52;;;;;;;2.17;0.80;;;;;;;22.11;47.37;99826.84;5112372;28;20073;-61
2022/05/09 06:03:20;;;;;;;1.73;1.05;;;;;;;22.13;47.48;99822.50;5113283;28;20133;-61
2022/05/09 06:05:46;;;;;;;1.60;0.70;;;;;;;22.16;47.69;99829.31;5113225;28;20156;-62
2022/05/09 06:08:12;;;;;;;1.02;0.80;;;;;;;22.15;47.37;99833.28;5113277;28;20124;-61
2022/05/09 06:10:37;;;;;;;1.40;1.00;;;;;;;22.18;47.39;99836.13;5111543;28;20084;-61
2022/05/09 06:13:04;;;;;;;1.48;0.80;;;;;;;22.56;46.70;99836.28;5113101;28;20028;-61
2022/05/09 06:15:33;;;;;;;1.30;0.90;;;;;;;22.61;46.39;99828.41;5112921;28;20046;-62
2022/05/09 06:18:02;;;;;;;1.35;0.85;;;;;;;22.60;46.51;99837.16;5113071;28;20173;-62
2022/05/09 06:20:31;;;;;;;1.55;0.90;;;;;;;22.53;46.44;99844.22;5113154;28;20062;-62
2022/05/09 06:22:58;;;;;;;1.42;1.00;;;;;;;22.44;46.61;99835.34;5113164;28;20035;-62
2022/05/09 06:25:25;;;;;;;3.15;1.02;;;;;;;22.42;46.76;99839.66;5110495;28;20062;-62
2022/05/09 06:27:52;;;;;;;1.38;0.90;;;;;;;22.38;47.06;99836.84;5111019;28;20491;-61
2022/05/09 06:30:19;;;;;;;1.20;0.80;;;;;;;22.36;47.26;99835.59;5111923;28;20104;-61
2022/05/09 06:32:46;;;;;;;1.35;1.00;;;;;;;22.35;47.12;99832.00;5109723;28;20550;-61
2022/05/09 06:35:14;;;;;;;1.52;1.00;;;;;;;22.33;47.06;99834.34;5112028;28;20118;-62
2022/05/09 06:37:40;;;;;;;1.88;1.20;;;;;;;22.32;47.18;99826.38;5111479;28;20616;-62
2022/05/09 06:40:08;;;;;;;1.00;0.80;;;;;;;22.33;47.42;99839.94;5112311;28;20036;-62
2022/05/09 06:42:35;;;;;;;1.45;1.00;;;;;;;22.33;47.27;99833.56;5124573;28;20050;-64
2022/05/09 06:45:00;;;;;;;1.70;1.10;;;;;;;22.32;47.21;99834.75;5112092;28;20499;-64
2022/05/09 06:47:26;;;;;;;1.90;1.10;;;;;;;22.36;47.11;99833.63;5115732;28;20047;-61
2022/05/09 06:49:51;;;;;;;1.73;1.00;;;;;;;22.44;47.23;99826.16;5131975;28;20058;-61
2022/05/09 06:52:17;;;;;;;2.72;0.80;;;;;;;22.49;47.00;99835.00;5113560;28;20047;-61
2022/05/09 06:54:42;;;;;;;3.40;0.98;;;;;;;22.52;46.89;99837.03;5132843;28;20088;-61
2022/05/09 06:57:08;;;;;;;1.90;0.80;;;;;;;22.55;46.90;99829.09;5130747;27;20039;-61
2022/05/09 06:59:34;;;;;;;1.83;1.00;;;;;;;22.56;46.96;99830.69;5130663;28;20050;-60
2022/05/09 07:02:00;;;;;;;1.63;1.00;;;;;;;22.55;47.39;99824.31;5126908;28;20047;-62
2022/05/09 07:04:27;;;;;;;2.22;1.02;;;;;;;22.57;47.53;99832.31;5121221;28;20051;-63
2022/05/09 07:06:52;;;;;;;1.50;1.00;;;;;;;22.57;47.44;99827.53;5120472;28;20111;-63
2022/05/09 07:09:18;;;;;;;1.50;1.00;;;;;;;22.57;47.52;99829.50;5124755;28;20111;-61
2022/05/09 07:11:43;;;;;;;1.48;0.80;;;;;;;22.60;47.64;99837.16;5123945;28;20038;-62
2022/05/09 07:14:09;;;;;;;2.65;1.02;;;;;;;22.61;47.47;99833.16;5123923;28;20046;-62
2022/05/09 07:16:36;;;;;;;1.92;1.08;;;;;;;22.63;47.61;99825.22;5115008;28;20062;-61
2022/05/09 07:19:04;;;;;;;3.55;1.10;;;;;;;22.63;47.53;99831.59;5125169;28;20055;-60
2022/05/09 07:21:30;;;;;;;2.70;0.93;;;;;;;22.62;47.61;99832.78;5120525;28;20062;-62
2022/05/09 07:23:55;;;;;;;2.28;0.98;;;;;;;22.63;47.79;99828.81;5111293;28;20892;-63
2022/05/09 07:26:21;;;;;;;1.90;0.90;;;;;;;22.64;47.45;99821.25;5116482;28;20028;-62
2022/05/09 07:28:47;;;;;;;2.50;0.90;;;;;;;22.65;47.27;99820.91;5117754;28;20027;-60
2022/05/09 07:31:12;;;;;;;3.90;1.15;;;;;;;22.67;47.27;99826.09;5118327;28;20058;-63
2022/05/09 07:33:38;;;;;;;1.83;1.10;;;;;;;22.68;47.51;99825.72;5100093;28;20039;-63
2022/05/09 07:36:04;;;;;;;2.65;1.13;;;;;;;22.69;47.38;99824.53;5121188;28;20051;-62
2022/05/09 07:38:30;;;;;;;3.88;1.30;;;;;;;22.68;47.55;99820.13;5123701;28;20043;-62
2022/05/09 07:40:56;;;;;;;2.03;1.02;;;;;;;22.73;47.71;99830.16;5116026;27;20043;-61
2022/05/09 07:43:24;;;;;;;1.70;0.98;;;;;;;22.74;47.84;99829.78;5124538;28;20043;-60
2022/05/09 07:45:55;;;;;;;3.53;1.00;;;;;;;22.73;47.80;99813.44;5124537;28;20039;-61
2022/05/09 07:48:22;;;;;;;1.45;0.88;;;;;;;22.77;47.79;99823.44;5126525;28;20039;-62
2022/05/09 07:50:49;;;;;;;1.77;1.00;;;;;;;22.76;47.62;99819.03;5118124;28;20130;-61
2022/05/09 07:53:24;;;;;;;2.72;1.08;;;;;;;22.79;47.23;99821.09;5129828;28;20498;-62
2022/05/09 07:55:50;;;;;;;3.13;1.02;;;;;;;22.80;47.20;99807.94;5130832;28;20130;-60
2022/05/09 07:58:15;;;;;;;1.38;0.82;;;;;;;22.83;47.18;99809.97;5129198;28;20134;-61
2022/05/09 08:00:43;;;;;;;1.73;0.90;;;;;;;22.91;47.08;99811.69;5124090;28;20092;-61
2022/05/09 08:03:15;;;;;;;4.03;2.65;;;;;;;22.97;46.77;99817.75;5122930;28;20039;-61
2022/05/09 08:05:40;;;;;;;10.70;5.10;;;;;;;22.99;46.48;99815.38;5125178;28;20096;-63
2022/05/09 08:08:06;;;;;;;8.45;3.30;;;;;;;23.05;46.05;99811.06;5127145;27;20044;-59
2022/05/09 08:10:32;;;;;;;5.57;2.50;;;;;;;23.04;46.01;99803.88;5126546;28;20045;-58
2022/05/09 08:12:58;;;;;;;2.97;2.17;;;;;;;23.04;46.11;99801.09;5127155;28;20050;-58
2022/05/09 08:15:25;;;;;;;4.28;1.88;;;;;;;23.03;46.07;99807.84;5130328;28;20062;-57
2022/05/09 08:17:52;;;;;;;2.67;1.50;;;;;;;23.03;46.13;99807.84;5121201;28;20039;-61
2022/05/09 08:20:17;;;;;;;3.38;1.70;;;;;;;23.10;46.02;99799.56;5116268;28;20051;-63
2022/05/09 08:22:45;;;;;;;3.65;1.30;;;;;;;23.10;46.03;99802.38;5119318;28;20043;-60
2022/05/09 08:25:13;;;;;;;5.78;1.70;;;;;;;23.11;46.03;99803.16;5115678;28;20596;-61
2022/05/09 08:27:39;;;;;;;2.78;1.42;;;;;;;23.16;46.02;99802.84;5121500;28;20498;-63
2022/05/09 08:30:07;;;;;;;2.10;1.25;;;;;;;23.16;45.87;99800.03;5128268;28;20031;-62
2022/05/09 08:32:34;;;;;;;5.07;1.50;;;;;;;23.14;46.02;99803.19;5120552;28;20127;-62
2022/05/09 08:35:00;;;;;;;2.42;1.30;;;;;;;23.14;45.99;99794.00;5111646;27;21293;-63
2022/05/09 08:37:25;;;;;;;2.75;1.50;;;;;;;23.14;46.02;99794.81;5099251;27;20757;-62
2022/05/09 08:39:51;;;;;;;3.55;1.25;;;;;;;23.16;46.30;99797.25;5107542;27;20036;-66
2022/05/09 08:42:41;;;;;;;2.58;1.48;;;;;;;23.14;46.27;99788.44;5110952;28;20095;-63
2022/05/09 08:45:17;;;;;;;4.28;2.00;;;;;;;23.22;45.92;99785.38;5111585;28;20039;-65
2022/05/09 08:48:01;;;;;;;3.72;1.60;;;;;;;23.19;45.92;99780.53;5108072;27;20134;-63
2022/05/09 08:51:08;;;;;;;4.05;1.73;;;;;;;23.15;46.06;99776.91;5105928;27;20070;-62
2022/05/09 08:53:38;;;;;;;3.13;1.63;;;;;;;23.15;46.15;99790.06;5031487;28;20060;-59
2022/05/09 08:56:04;;;;;;;2.70;1.58;;;;;;;23.15;46.13;99778.91;5031764;28;20055;-59
2022/05/09 08:58:44;;;;;;;3.55;1.65;;;;;;;23.13;46.47;99776.47;5033671;28;20087;-59
2022/05/09 09:01:22;;;;;;;4.75;1.30;;;;;;;23.16;46.30;99780.50;5030091;28;20093;-60
2022/05/09 09:04:02;;;;;;;3.10;1.40;;;;;;;23.20;45.77;99781.34;5029449;28;20064;-59
2022/05/09 09:06:49;;;;;;;7.05;1.60;;;;;;;23.16;46.09;99774.94;5033253;28;20519;-60
2022/05/09 09:09:53;;;;;;;3.92;1.80;;;;;;;23.16;46.10;99774.94;5088833;28;20058;-59
2022/05/09 09:12:40;;;;;;;3.33;1.30;;;;;;;23.20;46.07;99781.34;5093946;28;20056;-59
2022/05/09 09:15:17;;;;;;;4.78;1.33;;;;;;;23.24;45.98;99782.19;5088220;28;20150;-59
2022/05/09 09:18:20;;;;;;;4.95;1.63;;;;;;;23.18;46.28;99773.34;5070309;28;20047;-60
2022/05/09 09:20:58;;;;;;;2.35;1.40;;;;;;;23.12;46.75;99772.09;5078765;28;20052;-64
2022/05/09 09:23:29;;;;;;;2.55;1.40;;;;;;;23.06;46.83;99771.63;5092397;28;20088;-64
2022/05/09 09:26:09;;;;;;;3.60;1.50;;;;;;;23.06;47.00;99771.63;5085618;28;20032;-63
2022/05/09 09:28:52;;;;;;;2.67;1.45;;;;;;;23.11;46.95;99775.25;5088298;28;20431;-65
2022/05/09 09:31:28;;;;;;;2.72;1.60;;;;;;;23.11;47.09;99772.47;5085410;28;20094;-63
2022/05/09 09:34:04;;;;;;;2.88;1.58;;;;;;;23.14;47.14;99768.91;5070152;28;20051;-62
2022/05/09 09:36:37;;;;;;;3.25;1.42;;;;;;;23.18;47.03;99766.97;5087473;28;20059;-61
2022/05/09 09:39:15;;;;;;;4.38;1.40;;;;;;;23.18;47.28;99755.81;5082819;28;20498;-61
2022/05/09 09:41:40;;;;;;;6.43;1.30;;;;;;;23.23;47.50;99770.22;5088068;28;20113;-61
2022/05/09 09:44:15;;;;;;;2.10;1.10;;;;;;;23.27;47.21;99764.66;5095223;28;20039;-64
2022/05/09 09:47:18;;;;;;;2.03;1.38;;;;;;;23.26;47.29;99765.84;5092835;28;20410;-64
2022/05/09 09:49:45;;;;;;;2.25;1.30;;;;;;;23.29;47.19;99768.69;5081718;28;20515;-63
2022/05/09 09:52:43;;;;;;;2.78;1.30;;;;;;;23.30;47.16;99763.91;5092228;28;20123;-62
2022/05/09 09:55:33;;;;;;;3.35;1.20;;;;;;;23.32;46.95;99761.53;5088531;28;20031;-62
2022/05/09 09:58:19;;;;;;;1.73;1.13;;;;;;;23.37;46.90;99760.38;5080449;28;20088;-61
2022/05/09 10:00:45;;;;;;;3.03;1.50;;;;;;;23.39;46.93;99756.03;5094457;28;20032;-61
2022/05/09 10:03:22;;;;;;;2.45;1.48;;;;;;;23.40;47.00;99754.81;5098831;28;20414;-60
2022/05/09 10:05:50;;;;;;;3.13;1.50;;;;;;;23.41;47.00;99742.47;5102555;28;20078;-62
2022/05/09 10:08:32;;;;;;;2.95;1.58;;;;;;;23.45;46.81;99751.69;5094044;28;20127;-62
2022/05/09 10:11:13;;;;;;;2.58;1.40;;;;;;;23.45;46.92;99743.31;5087521;28;20047;-62
2022/05/09 10:13:40;;;;;;;2.80;1.38;;;;;;;23.48;46.87;99747.31;5089463;28;20051;-62
2022/05/09 10:16:23;;;;;;;4.15;1.42;;;;;;;23.50;46.74;99739.34;5101615;28;20101;-62
2022/05/09 10:18:50;;;;;;;2.38;1.20;;;;;;;23.52;46.73;99737.81;5102373;28;20055;-62
2022/05/09 10:24:49;;;;;;;4.68;1.40;;;;;;;23.56;46.76;99735.81;5062368;28;20051;-62
2022/05/09 10:27:35;;;;;;;2.75;1.33;;;;;;;23.60;46.66;99728.31;5099573;28;20134;-58
2022/05/09 10:30:30;;;;;;;3.88;1.60;;;;;;;23.61;46.66;99732.72;5078814;28;20053;-62
2022/05/09 10:33:32;;;;;;;2.42;1.20;;;;;;;23.65;46.50;99720.75;5089086;28;20067;-62
2022/05/09 10:36:03;;;;;;;3.47;1.20;;;;;;;23.67;46.35;99718.41;5076792;28;20875;-62
2022/05/09 10:38:50;;;;;;;2.15;1.20;;;;;;;23.70;46.25;99728.78;5093713;28;20563;-62
2022/05/09 10:41:30;;;;;;;3.80;1.25;;;;;;;23.71;46.14;99722.00;5102497;28;20059;-62
2022/05/09 10:44:03;;;;;;;2.10;1.17;;;;;;;23.71;46.07;99717.22;5101784;28;20069;-62
2022/05/09 10:46:40;;;;;;;1.88;1.08;;;;;;;23.75;45.88;99714.47;5105569;28;20123;-62
2022/05/09 10:49:48;;;;;;;3.30;1.20;;;;;;;23.76;45.94;99713.28;5091442;28;20044;-62
2022/05/09 10:52:30;;;;;;;2.88;1.25;;;;;;;23.78;45.90;99711.69;5100669;28;20532;-62
2022/05/09 10:55:17;;;;;;;2.10;1.27;;;;;;;23.80;45.77;99709.34;5111644;28;20055;-62
2022/05/09 10:57:54;;;;;;;2.50;1.00;;;;;;;23.81;45.88;99707.34;5111595;28;20134;-63
2022/05/09 11:00:24;;;;;;;2.50;1.20;;;;;;;23.78;45.53;99699.72;5110995;28;20073;-63
2022/05/09 11:03:08;;;;;;;1.83;1.10;;;;;;;23.82;45.71;99692.19;5111618;28;20507;-63
2022/05/09 11:05:54;;;;;;;2.28;1.10;;;;;;;23.83;45.82;99699.38;5111512;28;20134;-63
2022/05/09 11:08:56;;;;;;;1.88;1.10;;;;;;;23.84;45.81;99685.00;5111872;28;20039;-63
2022/05/09 11:11:41;;;;;;;1.70;1.00;;;;;;;23.86;45.76;99687.41;5109023;28;20052;-63
2022/05/09 11:14:19;;;;;;;2.13;1.30;;;;;;;23.87;45.83;99692.63;5110619;28;20043;-63
2022/05/09 11:17:21;;;;;;;1.83;0.90;;;;;;;23.88;45.82;99688.63;5109167;28;20055;-63
2022/05/09 11:20:09;;;;;;;2.17;1.13;;;;;;;23.91;45.68;99689.03;5107082;28;20055;-63
2022/05/09 11:22:38;;;;;;;1.60;1.10;;;;;;;23.92;45.69;99699.00;5095657;28;20052;-62
2022/05/09 11:25:27;;;;;;;2.15;1.02;;;;;;;23.94;45.64;99689.06;5095653;28;20035;-62
2022/05/09 11:28:08;;;;;;;2.50;1.02;;;;;;;23.93;46.00;99681.84;5096796;28;20047;-62
2022/05/09 11:30:43;;;;;;;1.83;1.00;;;;;;;23.99;45.88;99679.50;5095469;28;20067;-62
2022/05/09 11:33:37;;;;;;;1.80;1.00;;;;;;;24.00;46.13;99679.09;5097305;28;20036;-63
2022/05/09 11:36:20;;;;;;;;;;;;;;;24.04;45.98;99676.34;5106719;28;20044;-63
2022/05/09 11:39:17;;;;;;;2.85;1.00;;;;;;;24.01;46.29;99668.75;5108648;28;19922;-62
2022/05/09 11:46:00;;;;;;;1.63;1.10;;;;;;;24.05;46.67;99663.97;4959360;28;20038;-64
2022/05/09 11:48:44;;;;;;;2.22;1.05;;;;;;;24.06;46.74;99669.16;4866506;29;20067;-65
2022/05/09 11:51:16;;;;;;;1.30;1.00;;;;;;;24.07;46.76;99661.59;4871485;29;20484;-65
2022/05/09 11:53:44;;;;;;;1.50;1.00;;;;;;;24.08;46.72;99657.63;4890800;29;20597;-66
2022/05/09 11:56:10;;;;;;;1.50;1.00;;;;;;;24.06;46.68;99659.97;4878703;29;20063;-65
2022/05/09 11:58:43;;;;;;;2.85;1.10;;;;;;;24.09;46.86;99651.63;4871821;29;20478;-64
2022/05/09 12:01:09;;;;;;;;;;;;;;;24.13;46.94;99655.22;4891478;29;20052;-65
2022/05/09 12:03:40;;;;;;;1.67;1.08;;;;;;;24.14;46.85;99648.44;4892888;29;19935;-63